Time;durP1;ratioP1;P1;durP2;ratioP2;P2;SDS_P1;SDS_P2;PMS_P1;PMS_P2;Temp;Humidity;BMP_temperature;BMP_pressure;BME280_temperature;BME280_humidity;BME280_pressure;Samples;Min_cycle;Max_cycle;Signal;HPM_P1;HPM_P2
2023/06/25 00:08:43;;;;;;;2.55;2.25;;;;;;;25.87;49.27;100789.25;21075830;28;20109;-58
2023/06/25 00:18:47;;;;;;;2.63;2.40;;;;;;;26.05;49.05;100812.66;21075329;28;20040;-59
2023/06/25 00:28:50;;;;;;;2.63;2.30;;;;;;;26.05;49.13;100807.03;21075386;28;20048;-59
2023/06/25 00:38:51;;;;;;;2.55;2.35;;;;;;;26.06;49.42;100820.72;21074533;28;20066;-58
2023/06/25 00:48:52;;;;;;;2.53;2.33;;;;;;;26.07;49.53;100827.16;21074291;28;20040;-58
2023/06/25 00:59:00;;;;;;;2.55;2.28;;;;;;;26.09;49.80;100830.50;21060904;28;20044;-57
2023/06/25 01:09:06;;;;;;;2.35;2.15;;;;;;;26.10;49.69;100837.75;21081766;28;20052;-55
2023/06/25 01:19:10;;;;;;;2.17;1.92;;;;;;;26.10;49.60;100848.97;21085339;28;20057;-58
2023/06/25 01:29:11;;;;;;;2.65;2.45;;;;;;;26.12;49.79;100852.31;21074687;28;20478;-58
2023/06/25 01:39:13;;;;;;;2.75;2.40;;;;;;;26.13;49.83;100867.97;21075689;28;20522;-56
2023/06/25 01:49:14;;;;;;;2.88;2.40;;;;;;;26.14;49.69;100889.25;21080535;28;20048;-58
2023/06/25 01:59:15;;;;;;;2.35;2.00;;;;;;;26.15;49.80;100890.91;21082213;28;20070;-59
2023/06/25 02:09:17;;;;;;;2.78;2.30;;;;;;;26.14;50.02;100894.88;21082205;28;20052;-58
2023/06/25 02:19:21;;;;;;;2.38;2.17;;;;;;;26.17;49.79;100910.25;21080059;28;20036;-58
2023/06/25 02:29:25;;;;;;;5.57;2.38;;;;;;;26.18;50.05;100918.34;21081854;28;20085;-58
2023/06/25 02:39:26;;;;;;;4.78;2.60;;;;;;;26.19;50.05;100903.16;21082141;28;20040;-59
2023/06/25 02:49:28;;;;;;;3.13;2.13;;;;;;;26.19;49.99;100893.91;21080284;28;20036;-58
2023/06/25 02:59:29;;;;;;;3.55;2.42;;;;;;;26.18;49.89;100887.47;21080588;28;20028;-58
2023/06/25 03:09:30;;;;;;;3.00;2.40;;;;;;;26.23;49.88;100892.13;21079567;28;20403;-58
2023/06/25 03:19:32;;;;;;;5.50;2.45;;;;;;;26.23;49.85;100889.34;21079046;28;20032;-57
2023/06/25 03:29:33;;;;;;;3.92;2.55;;;;;;;26.25;49.82;100889.81;21078295;28;20069;-58
2023/06/25 03:39:35;;;;;;;4.05;2.10;;;;;;;26.24;49.61;100889.00;21077567;28;20058;-59
2023/06/25 03:49:36;;;;;;;2.47;2.28;;;;;;;26.26;49.91;100886.72;21077605;28;20036;-59
2023/06/25 03:59:40;;;;;;;2.65;2.28;;;;;;;26.27;49.76;100887.56;21077759;28;20037;-56
2023/06/25 04:09:41;;;;;;;3.13;2.15;;;;;;;26.27;49.90;100893.97;21076220;28;20403;-58
2023/06/25 04:19:43;;;;;;;2.58;2.25;;;;;;;26.29;49.94;100902.91;21075658;28;20044;-57
2023/06/25 04:29:44;;;;;;;2.80;2.50;;;;;;;26.30;49.80;100914.97;21074980;28;20093;-57
2023/06/25 04:39:49;;;;;;;3.80;2.30;;;;;;;26.31;49.93;100906.22;21080433;28;20097;-58
2023/06/25 04:49:50;;;;;;;3.10;2.03;;;;;;;26.32;49.82;100912.66;21090620;28;20044;-59
2023/06/25 04:59:51;;;;;;;2.53;1.73;;;;;;;26.32;49.68;100907.88;21090236;28;20040;-58
2023/06/25 05:09:52;;;;;;;3.22;2.65;;;;;;;26.33;49.86;100908.72;21089219;28;20044;-58
2023/06/25 05:19:57;;;;;;;2.85;2.20;;;;;;;26.30;49.50;100898.97;21088340;28;20044;-57
2023/06/25 05:29:58;;;;;;;2.65;2.13;;;;;;;26.34;49.69;100894.38;21087292;28;20036;-58
2023/06/25 05:39:59;;;;;;;2.00;1.80;;;;;;;26.34;49.71;100894.38;21087028;28;20198;-57
2023/06/25 05:50:01;;;;;;;2.03;1.92;;;;;;;26.34;49.70;100894.38;21085245;28;20036;-57
2023/06/25 06:00:02;;;;;;;2.28;2.08;;;;;;;26.35;49.64;100884.81;21085660;28;20388;-58
2023/06/25 06:10:04;;;;;;;2.17;1.98;;;;;;;26.34;49.36;100885.97;21084825;28;20052;-59
2023/06/25 06:20:06;;;;;;;2.00;1.85;;;;;;;26.36;49.43;100872.44;21083875;28;20035;-56
2023/06/25 06:30:10;;;;;;;2.50;1.92;;;;;;;26.36;49.61;100875.25;21083164;28;20044;-58
2023/06/25 06:40:12;;;;;;;2.10;1.90;;;;;;;26.38;49.47;100855.28;21082037;28;20101;-57
2023/06/25 06:50:13;;;;;;;2.22;2.03;;;;;;;26.39;49.40;100850.47;21080633;28;20044;-58
2023/06/25 07:00:17;;;;;;;2.05;1.85;;;;;;;26.39;49.10;100854.16;21080164;28;20093;-57
2023/06/25 07:10:24;;;;;;;2.10;1.90;;;;;;;26.40;49.11;100840.94;21079641;28;20052;-58
2023/06/25 07:20:25;;;;;;;2.03;1.83;;;;;;;26.40;49.19;100841.78;21079239;28;20032;-57
2023/06/25 07:30:26;;;;;;;2.00;1.90;;;;;;;26.41;49.04;100832.19;21078542;28;20032;-57
2023/06/25 07:40:28;;;;;;;2.50;2.00;;;;;;;26.38;49.06;100821.59;21077486;28;20032;-57
2023/06/25 07:50:29;;;;;;;2.70;2.00;;;;;;;26.40;48.85;100830.53;21077152;28;20028;-60
2023/06/25 08:00:30;;;;;;;2.30;1.50;;;;;;;26.35;49.04;100814.69;21076681;28;20036;-58
2023/06/25 08:10:32;;;;;;;1.92;1.80;;;;;;;26.42;48.79;100819.81;21076457;28;20037;-57
2023/06/25 08:20:33;;;;;;;2.15;1.95;;;;;;;26.43;48.87;100827.09;21092288;28;20433;-58
2023/06/25 08:30:35;;;;;;;2.10;1.90;;;;;;;26.44;48.57;100830.78;21092828;28;20024;-58
2023/06/25 08:40:40;;;;;;;1.88;1.75;;;;;;;26.43;48.70;100823.44;21092288;28;20036;-58
2023/06/25 08:50:44;;;;;;;2.08;1.92;;;;;;;26.44;48.87;100827.97;21091439;28;20117;-59
2023/06/25 09:00:45;;;;;;;1.90;1.80;;;;;;;26.37;48.77;100803.13;21090216;28;20036;-59
2023/06/25 09:10:57;;;;;;;1.80;1.70;;;;;;;26.42;48.66;100810.56;21089718;28;20056;-58
2023/06/25 09:21:06;;;;;;;1.58;1.48;;;;;;;26.42;48.67;100827.41;21088898;28;20103;-56
2023/06/25 09:31:07;;;;;;;1.77;1.65;;;;;;;26.42;48.72;100838.63;21088135;28;20051;-59
2023/06/25 09:41:09;;;;;;;2.10;1.90;;;;;;;26.41;48.57;100831.38;21087526;28;20040;-57
2023/06/25 09:51:15;;;;;;;1.67;1.58;;;;;;;26.46;48.56;100850.91;21086609;28;20040;-58
2023/06/25 10:01:16;;;;;;;1.88;1.77;;;;;;;26.45;48.55;100854.88;21084809;28;20122;-57
2023/06/25 10:11:18;;;;;;;2.55;1.90;;;;;;;26.45;48.80;100866.09;21085031;28;20109;-58
2023/06/25 10:21:22;;;;;;;1.70;1.60;;;;;;;26.39;48.34;100856.09;21084321;28;20040;-58
2023/06/25 10:31:23;;;;;;;1.75;1.63;;;;;;;26.45;48.54;100877.31;21082958;28;20480;-58
2023/06/25 10:41:27;;;;;;;1.75;1.60;;;;;;;26.45;48.37;100860.47;21079826;28;20369;-57
2023/06/25 10:51:29;;;;;;;2.00;1.90;;;;;;;26.45;48.41;100868.91;21081554;28;20044;-58
2023/06/25 11:01:34;;;;;;;1.95;1.77;;;;;;;26.44;48.31;100870.06;21080325;28;20040;-55
2023/06/25 11:11:37;;;;;;;1.90;1.80;;;;;;;26.46;48.46;100879.78;21079897;28;20474;-59
2023/06/25 11:21:39;;;;;;;1.90;1.70;;;;;;;26.44;48.40;100892.50;21079221;28;20051;-57
2023/06/25 11:31:52;;;;;;;1.65;1.55;;;;;;;26.45;48.39;100894.16;21078924;28;20093;-59
2023/06/25 11:41:56;;;;;;;1.65;1.55;;;;;;;26.48;48.57;100907.50;21077497;28;20395;-57
2023/06/25 11:52:00;;;;;;;1.70;1.60;;;;;;;26.48;48.40;100902.75;21077061;28;20109;-58
2023/06/25 12:02:01;;;;;;;1.50;1.40;;;;;;;26.46;48.64;100901.41;21076955;28;20039;-58
2023/06/25 12:12:03;;;;;;;1.70;1.60;;;;;;;26.49;48.63;100912.00;21076523;28;20027;-58
2023/06/25 12:22:05;;;;;;;1.60;1.50;;;;;;;26.49;48.61;100906.41;21075771;28;20105;-57
2023/06/25 12:32:09;;;;;;;1.83;1.55;;;;;;;26.48;48.27;100916.78;21074982;28;20106;-58
2023/06/25 12:42:10;;;;;;;1.50;1.40;;;;;;;26.50;48.29;100908.03;21074360;28;20032;-58
2023/06/25 12:52:11;;;;;;;1.85;1.75;;;;;;;26.51;48.53;100896.50;21074437;28;20040;-58
2023/06/25 13:02:12;;;;;;;1.60;1.50;;;;;;;26.51;48.33;100887.25;21081618;28;20044;-58
2023/06/25 13:12:14;;;;;;;1.60;1.50;;;;;;;26.51;48.42;100885.25;21087980;28;20454;-58
2023/06/25 13:22:15;;;;;;;1.65;1.55;;;;;;;26.50;48.22;100877.19;21088539;28;20039;-59
2023/06/25 13:32:17;;;;;;;1.55;1.42;;;;;;;26.52;48.49;100894.50;21088211;28;20471;-61
2023/06/25 13:42:21;;;;;;;1.50;1.40;;;;;;;26.51;48.43;100884.44;21087206;28;20432;-58
2023/06/25 13:52:22;;;;;;;1.65;1.38;;;;;;;26.53;48.41;100876.53;21088288;28;20043;-59
2023/06/25 14:02:23;;;;;;;1.70;1.60;;;;;;;26.53;48.45;100874.56;21085158;28;20040;-58
2023/06/25 14:12:26;;;;;;;2.00;1.90;;;;;;;26.52;48.56;100855.22;21083328;28;20036;-58
2023/06/25 14:22:27;;;;;;;1.88;1.63;;;;;;;26.54;48.28;100881.00;21083058;28;20121;-56
2023/06/25 14:32:31;;;;;;;1.77;1.67;;;;;;;26.53;48.62;100856.91;21082698;28;20036;-57
2023/06/25 14:42:33;;;;;;;2.15;1.80;;;;;;;26.54;48.81;100881.81;21080887;28;20101;-58
2023/06/25 14:52:34;;;;;;;2.28;1.98;;;;;;;26.55;48.87;100865.81;21081317;28;20039;-58
2023/06/25 15:02:36;;;;;;;3.85;2.40;;;;;;;26.56;48.87;100864.66;21080020;28;20044;-58
2023/06/25 15:12:37;;;;;;;2.30;2.10;;;;;;;26.57;49.00;100864.34;21078528;28;20502;-58
2023/06/25 15:22:38;;;;;;;2.58;2.22;;;;;;;26.57;48.74;100857.88;21079157;28;20048;-58
2023/06/25 15:32:43;;;;;;;2.15;1.95;;;;;;;26.60;48.98;100851.63;21078270;28;20474;-58
2023/06/25 15:42:44;;;;;;;2.47;2.25;;;;;;;26.61;48.93;100842.06;21077117;28;20065;-59
2023/06/25 15:52:45;;;;;;;2.83;2.63;;;;;;;26.61;49.16;100830.84;21076973;28;20036;-58
2023/06/25 16:02:47;;;;;;;2.80;2.60;;;;;;;26.48;48.96;100798.94;21076093;28;20036;-59
2023/06/25 16:12:49;;;;;;;3.08;2.80;;;;;;;26.56;49.34;100808.53;21075715;28;20052;-57
2023/06/25 16:22:50;;;;;;;2.67;2.47;;;;;;;26.63;49.15;100806.09;21074353;28;20097;-58
2023/06/25 16:32:51;;;;;;;2.45;2.25;;;;;;;26.66;49.12;100794.22;21076654;28;20035;-59
2023/06/25 16:42:53;;;;;;;2.65;2.45;;;;;;;26.61;49.10;100771.91;21091164;28;20058;-58
2023/06/25 16:52:54;;;;;;;2.55;2.35;;;;;;;26.69;49.24;100776.72;21090888;28;20445;-59
2023/06/25 17:02:55;;;;;;;2.65;2.45;;;;;;;26.72;49.36;100806.97;21088992;28;20552;-57
2023/06/25 17:12:58;;;;;;;3.10;2.85;;;;;;;26.72;49.32;100804.16;21089357;28;20032;-58
2023/06/25 17:22:59;;;;;;;3.05;2.83;;;;;;;26.74;49.22;100789.78;21088501;28;20442;-57
2023/06/25 17:33:00;;;;;;;2.80;2.60;;;;;;;26.76;49.29;100791.13;21087000;28;20062;-58
2023/06/25 17:43:02;;;;;;;2.70;2.50;;;;;;;26.78;49.34;100797.25;21086809;28;20040;-58
2023/06/25 17:53:05;;;;;;;2.80;2.58;;;;;;;26.79;49.42;100764.38;21086289;28;20031;-59
2023/06/25 18:03:06;;;;;;;2.65;2.45;;;;;;;26.81;49.23;100762.91;21084385;28;20044;-59
2023/06/25 18:13:08;;;;;;;3.00;2.80;;;;;;;26.82;49.31;100756.13;21084087;28;20442;-57
2023/06/25 18:23:10;;;;;;;3.17;2.88;;;;;;;26.82;49.30;100747.72;21083119;28;20041;-59
2023/06/25 18:33:12;;;;;;;3.00;2.70;;;;;;;26.84;49.63;100736.97;21082575;28;20028;-59
2023/06/25 18:43:13;;;;;;;2.40;2.20;;;;;;;26.89;49.51;100723.94;21081682;28;20101;-59
2023/06/25 18:53:14;;;;;;;3.08;2.78;;;;;;;26.88;49.47;100723.13;21081242;28;20524;-59
2023/06/25 19:03:16;;;;;;;2.45;2.25;;;;;;;26.94;49.51;100715.34;21079625;28;20110;-58
2023/06/25 19:13:23;;;;;;;3.15;2.85;;;;;;;26.95;49.47;100691.75;21079013;28;20540;-59
2023/06/25 19:23:27;;;;;;;2.65;2.45;;;;;;;26.97;49.64;100692.25;21078310;28;20044;-57
2023/06/25 19:33:28;;;;;;;3.25;2.95;;;;;;;27.00;49.78;100712.09;21078041;28;20105;-58
2023/06/25 19:43:29;;;;;;;2.85;2.65;;;;;;;27.02;49.77;100701.34;21077647;28;20044;-58
2023/06/25 19:53:33;;;;;;;2.90;2.60;;;;;;;27.05;49.76;100705.47;21076188;28;20101;-57
2023/06/25 20:03:34;;;;;;;3.13;2.83;;;;;;;27.05;48.54;100719.53;21075618;28;20047;-57
2023/06/25 20:13:35;;;;;;;2.55;2.35;;;;;;;26.95;47.40;100736.69;21075308;28;20438;-58
2023/06/25 20:23:37;;;;;;;2.55;2.35;;;;;;;26.88;46.50;100750.38;21075826;28;20082;-58
2023/06/25 20:33:38;;;;;;;2.60;2.40;;;;;;;26.79;45.98;100739.94;21075238;28;20040;-58
2023/06/25 20:43:40;;;;;;;3.10;2.80;;;;;;;26.69;45.51;100714.16;21075141;28;20044;-58
2023/06/25 20:53:42;;;;;;;2.72;2.53;;;;;;;26.66;45.21;100700.75;21074471;28;20491;-58
2023/06/25 21:03:43;;;;;;;3.03;2.20;;;;;;;26.61;45.02;100755.06;21073517;28;20125;-57
2023/06/25 21:13:47;;;;;;;2.22;2.05;;;;;;;26.57;44.89;100746.50;21073276;28;20501;-58
2023/06/25 21:23:51;;;;;;;2.60;2.40;;;;;;;26.53;44.37;100851.28;21081842;28;20109;-59
2023/06/25 21:33:55;;;;;;;2.30;2.10;;;;;;;26.30;44.00;100854.09;21087426;28;20036;-59
2023/06/25 21:43:56;;;;;;;2.17;1.98;;;;;;;26.43;43.74;100801.84;21086112;28;20048;-59
2023/06/25 21:53:57;;;;;;;4.07;2.53;;;;;;;26.39;43.72;100786.81;21085841;28;20093;-58
2023/06/25 22:03:59;;;;;;;2.50;2.30;;;;;;;26.33;43.44;100769.25;21085033;28;20048;-59
2023/06/25 22:14:00;;;;;;;2.15;1.92;;;;;;;26.33;43.49;100735.59;21084636;28;20077;-59
2023/06/25 22:24:02;;;;;;;2.90;1.77;;;;;;;26.30;43.08;100741.88;21082871;28;20402;-57
2023/06/25 22:34:06;;;;;;;2.42;2.13;;;;;;;26.26;43.21;100729.66;21082073;28;20097;-58
2023/06/25 22:44:07;;;;;;;2.30;2.10;;;;;;;26.26;43.22;100707.19;21082129;28;20047;-58
2023/06/25 22:54:08;;;;;;;2.08;1.88;;;;;;;26.23;42.95;100718.22;21080955;28;20368;-58
2023/06/25 23:04:10;;;;;;;2.22;2.03;;;;;;;26.21;42.82;100729.78;21080051;28;20399;-58
2023/06/25 23:14:11;;;;;;;2.08;1.83;;;;;;;26.03;42.90;100731.66;21080354;28;20032;-58
2023/06/25 23:24:14;;;;;;;1.98;1.83;;;;;;;26.19;42.78;100760.13;21078475;28;20085;-58
2023/06/25 23:34:15;;;;;;;1.75;1.63;;;;;;;26.19;42.62;100785.34;21077854;28;20040;-59
2023/06/25 23:44:17;;;;;;;1.55;1.45;;;;;;;26.18;42.36;100780.91;21076996;28;20040;-59
2023/06/25 23:54:18;;;;;;;2.10;1.90;;;;;;;26.15;42.31;100747.06;21076178;28;20040;-59
